Terminal Aerodrome Forecast
Issued by NWS Grand Rapids, MI

Home | Current Version | Previous Version | Text Only | Print | Product List | Glossary On
Versions: 1 2 3 4 5 6 7 8 9 10 11 12 13 14 15 16 17 18 19 20 21
692
FTUS43 KGRR 292340
TAFGRR
TAF
KGRR 292340Z 3000/3024 07010G16KT P6SM -RA OVC050
     FM300120 07010G18KT 5SM -RA BR OVC025
     FM300400 06015G22KT 3SM RA BR OVC011
     FM300600 07014G24KT 2SM +RA BR OVC010
     FM300900 08017G24KT 3SM RA BR VCTS OVC005CB
     FM301400 08014G19KT 3SM -RA BR OVC007
     FM301600 08012KT 3SM -SHRA BR OVC007=

USA.gov is the U.S. government's official web portal to all federal, state and local government web resources and services.